createdAt,value
2022-08-22T00:00:32.307Z,37.37
2022-08-22T00:03:01.687Z,34.89
2022-08-22T00:03:15.778Z,37.66
2022-08-22T00:05:29.873Z,36.97
2022-08-22T00:07:53.720Z,37.58
2022-08-22T00:09:58.265Z,38.27
2022-08-22T00:12:23.146Z,37.78
2022-08-22T00:14:35.077Z,37.18
2022-08-22T00:16:58.808Z,37.20
2022-08-22T00:19:19.328Z,39.40
2022-08-22T00:21:52.403Z,39.42
2022-08-22T00:24:14.992Z,38.17
2022-08-22T00:26:35.708Z,37.65
2022-08-22T00:29:01.361Z,37.90
2022-08-22T00:31:21.135Z,37.83
2022-08-22T00:33:39.092Z,37.86
2022-08-22T00:35:49.852Z,38.08
2022-08-22T00:38:13.259Z,37.92
2022-08-22T00:40:35.890Z,38.85
2022-08-22T00:43:09.631Z,38.78
2022-08-22T00:45:17.742Z,38.43
2022-08-22T00:47:53.079Z,37.93
2022-08-22T00:50:09.693Z,38.43
2022-08-22T00:52:23.404Z,38.33
2022-08-22T00:54:40.183Z,38.11
2022-08-22T00:56:45.175Z,38.31
2022-08-22T00:59:22.895Z,38.26
2022-08-22T01:01:35.802Z,38.02
2022-08-22T01:03:48.915Z,39.65
2022-08-22T01:06:15.142Z,38.75
2022-08-22T01:08:40.277Z,38.81
2022-08-22T01:10:54.682Z,39.94
2022-08-22T01:13:15.188Z,40.00
2022-08-22T01:15:24.725Z,39.47
2022-08-22T01:17:47.775Z,39.69
2022-08-22T01:20:27.356Z,39.44
2022-08-22T01:22:44.052Z,39.93
2022-08-22T01:25:18.432Z,39.57
2022-08-22T01:28:02.928Z,39.20
2022-08-22T01:30:18.176Z,38.84
2022-08-22T01:33:09.739Z,39.03
2022-08-22T01:35:28.821Z,39.04
2022-08-22T01:37:58.361Z,38.77
2022-08-22T01:40:00.500Z,38.49
2022-08-22T01:42:31.783Z,38.57
2022-08-22T01:44:54.380Z,39.29
2022-08-22T01:47:14.424Z,39.31
2022-08-22T01:49:20.795Z,39.16
2022-08-22T01:51:27.180Z,39.66
2022-08-22T01:53:42.819Z,39.79
2022-08-22T01:56:15.225Z,39.99
2022-08-22T01:58:21.079Z,40.15
2022-08-22T02:00:35.450Z,39.83
2022-08-22T02:02:56.196Z,39.64
2022-08-22T02:05:06.760Z,39.58
2022-08-22T02:07:21.004Z,39.81
2022-08-22T02:09:46.565Z,40.00
2022-08-22T02:11:58.876Z,40.73
2022-08-22T02:14:13.774Z,41.26
2022-08-22T02:16:38.782Z,41.43
2022-08-22T02:18:54.217Z,41.76
2022-08-22T02:21:10.324Z,42.07
2022-08-22T02:23:23.996Z,41.67
2022-08-22T02:25:32.536Z,41.66
2022-08-22T02:27:43.677Z,41.62
2022-08-22T02:29:50.453Z,41.95
2022-08-22T02:32:05.896Z,42.66
2022-08-22T02:34:39.982Z,43.53
2022-08-22T02:36:50.457Z,42.58
2022-08-22T02:38:59.644Z,42.38
2022-08-22T02:41:18.013Z,42.12
2022-08-22T02:43:28.383Z,42.71
2022-08-22T02:45:53.564Z,41.29
2022-08-22T02:48:10.724Z,41.27
2022-08-22T02:50:41.453Z,41.37
2022-08-22T02:53:21.223Z,41.18
2022-08-22T02:55:47.039Z,41.55
2022-08-22T02:58:00.929Z,41.08
2022-08-22T03:00:31.353Z,40.42
2022-08-22T03:02:46.763Z,40.15
2022-08-22T03:04:54.332Z,41.06
2022-08-22T03:07:20.979Z,40.68
2022-08-22T03:09:29.806Z,40.36
2022-08-22T03:11:40.132Z,39.65
2022-08-22T03:14:01.596Z,39.80
2022-08-22T03:16:29.128Z,39.66
2022-08-22T03:18:41.401Z,40.37
2022-08-22T03:20:55.661Z,40.25
2022-08-22T03:23:06.082Z,40.51
2022-08-22T03:25:20.033Z,40.99
2022-08-22T03:27:41.863Z,40.33
2022-08-22T03:29:50.042Z,40.32
2022-08-22T03:32:08.585Z,40.05
2022-08-22T03:34:26.699Z,40.56
2022-08-22T03:36:29.768Z,40.37
2022-08-22T03:38:34.464Z,40.25
2022-08-22T03:40:55.741Z,41.04
2022-08-22T03:43:08.469Z,40.51
2022-08-22T03:45:43.030Z,40.71
2022-08-22T03:48:07.918Z,40.81
2022-08-22T03:50:27.641Z,41.27
2022-08-22T03:53:06.184Z,41.19
2022-08-22T03:55:39.942Z,41.21
2022-08-22T03:58:01.978Z,41.28
2022-08-22T04:00:39.625Z,41.93
2022-08-22T04:03:18.161Z,41.74
2022-08-22T04:05:28.765Z,42.13
2022-08-22T04:07:43.104Z,41.96
2022-08-22T04:10:07.274Z,42.62
2022-08-22T04:12:24.363Z,42.86
2022-08-22T04:14:49.997Z,41.93
2022-08-22T04:17:20.393Z,42.38
2022-08-22T04:19:46.839Z,41.84
2022-08-22T04:21:55.021Z,42.20
2022-08-22T04:24:20.548Z,42.25
2022-08-22T04:26:56.368Z,41.91
2022-08-22T04:29:14.854Z,41.53
2022-08-22T04:31:24.936Z,42.07
2022-08-22T04:33:33.418Z,42.01
2022-08-22T04:36:16.229Z,42.43
2022-08-22T04:38:17.749Z,41.65
2022-08-22T04:40:43.549Z,41.74
2022-08-22T04:42:59.134Z,41.99
2022-08-22T04:45:16.768Z,42.93
2022-08-22T04:47:32.574Z,42.08
2022-08-22T04:49:46.686Z,42.49
2022-08-22T04:51:55.206Z,43.98
2022-08-22T04:54:30.890Z,43.01
2022-08-22T04:56:50.944Z,42.13
2022-08-22T04:59:03.472Z,42.73
2022-08-22T05:01:17.194Z,43.46
2022-08-22T05:03:23.348Z,42.50
2022-08-22T05:05:37.919Z,42.94
2022-08-22T05:07:46.126Z,42.42
2022-08-22T05:09:52.740Z,42.53
2022-08-22T05:12:00.289Z,42.69
2022-08-22T05:14:07.268Z,43.10
2022-08-22T05:16:15.970Z,42.20
2022-08-22T05:18:23.917Z,42.62
2022-08-22T05:20:31.548Z,43.78
2022-08-22T05:22:40.094Z,42.65
2022-08-22T05:24:48.731Z,41.79
2022-08-22T05:26:55.921Z,42.32
2022-08-22T05:29:02.888Z,42.78
2022-08-22T05:31:12.333Z,42.37
2022-08-22T05:33:18.646Z,43.03
2022-08-22T05:35:33.638Z,42.40
2022-08-22T05:37:53.325Z,43.51
2022-08-22T05:39:58.850Z,43.62
2022-08-22T05:42:03.312Z,42.40
2022-08-22T05:44:13.296Z,42.03
2022-08-22T05:46:26.936Z,41.77
2022-08-22T05:48:42.161Z,41.92
2022-08-22T05:50:52.081Z,41.44
2022-08-22T05:53:15.543Z,41.64
2022-08-22T05:55:44.617Z,41.57
2022-08-22T05:57:52.403Z,41.74
2022-08-22T06:00:04.164Z,42.60
2022-08-22T06:02:05.769Z,42.37
2022-08-22T06:04:41.916Z,41.73
2022-08-22T06:06:56.452Z,43.49
2022-08-22T06:09:08.578Z,43.20
2022-08-22T06:11:26.852Z,44.52
2022-08-22T06:13:43.480Z,44.08
2022-08-22T06:15:56.103Z,44.51
2022-08-22T06:18:03.429Z,43.66
2022-08-22T06:20:12.236Z,43.28
2022-08-22T06:22:32.124Z,44.33
2022-08-22T06:24:37.735Z,44.54
2022-08-22T06:26:48.546Z,45.43
2022-08-22T06:28:56.104Z,43.93
2022-08-22T06:30:59.135Z,44.10
2022-08-22T06:33:06.800Z,44.98
2022-08-22T06:35:28.062Z,43.81
2022-08-22T06:37:38.783Z,43.26
2022-08-22T06:39:45.021Z,43.12
2022-08-22T06:42:16.273Z,43.96
2022-08-22T06:44:24.154Z,43.23
2022-08-22T06:46:29.260Z,43.21
2022-08-22T06:48:34.836Z,42.87
2022-08-22T06:50:43.034Z,43.10
2022-08-22T06:53:19.084Z,42.54
2022-08-22T06:55:22.933Z,42.56
2022-08-22T06:57:30.181Z,43.43
2022-08-22T06:59:37.436Z,43.03
2022-08-22T07:01:46.664Z,41.83
2022-08-22T07:03:54.332Z,41.04
2022-08-22T07:05:56.956Z,41.63
2022-08-22T07:07:58.812Z,41.70
2022-08-22T07:10:00.850Z,41.89
2022-08-22T07:12:24.354Z,42.33
2022-08-22T07:14:30.190Z,41.75
2022-08-22T07:16:44.797Z,41.65
2022-08-22T07:18:50.219Z,41.25
2022-08-22T07:20:59.417Z,41.24
2022-08-22T07:23:09.648Z,41.29
2022-08-22T07:25:16.132Z,40.63
2022-08-22T07:27:42.880Z,40.72
2022-08-22T07:30:09.959Z,41.12
2022-08-22T07:32:16.261Z,41.28
2022-08-22T07:34:48.877Z,40.63
2022-08-22T07:36:55.482Z,40.63
2022-08-22T07:39:21.543Z,40.67
2022-08-22T07:41:32.755Z,39.79
2022-08-22T07:43:37.129Z,38.96
2022-08-22T07:45:53.861Z,40.60
2022-08-22T07:48:22.650Z,40.34
2022-08-22T07:50:32.005Z,40.05
2022-08-22T07:52:41.978Z,40.07
2022-08-22T07:55:42.237Z,38.85
2022-08-22T07:58:00.654Z,38.79
2022-08-22T08:00:11.599Z,39.48
2022-08-22T08:02:15.987Z,38.84
2022-08-22T08:04:24.715Z,39.08
2022-08-22T08:06:28.183Z,39.68
2022-08-22T08:08:43.948Z,39.56
2022-08-22T08:10:48.788Z,38.80
2022-08-22T08:13:01.861Z,38.71
2022-08-22T08:15:08.869Z,38.67
2022-08-22T08:17:22.364Z,38.51
2022-08-22T08:19:25.463Z,37.95
2022-08-22T08:21:40.496Z,38.05
2022-08-22T08:23:46.578Z,38.13
2022-08-22T08:25:57.602Z,38.39
2022-08-22T08:28:18.730Z,39.47
2022-08-22T08:30:41.440Z,39.71
2022-08-22T08:32:48.012Z,40.78
2022-08-22T08:34:52.512Z,40.30
2022-08-22T08:37:04.812Z,39.62
2022-08-22T08:39:35.794Z,39.19
2022-08-22T08:41:53.309Z,40.54
2022-08-22T08:44:22.690Z,40.42
2022-08-22T08:46:55.873Z,38.64
2022-08-22T08:49:24.157Z,41.00
2022-08-22T08:51:43.924Z,39.38
2022-08-22T08:54:21.234Z,39.17
2022-08-22T08:56:30.509Z,39.52
2022-08-22T08:58:45.685Z,39.21
2022-08-22T09:01:19.527Z,38.64
2022-08-22T09:03:51.435Z,38.22
2022-08-22T09:06:14.787Z,37.48
2022-08-22T09:08:30.674Z,37.79
2022-08-22T09:10:51.122Z,38.17
2022-08-22T09:13:34.499Z,37.51
2022-08-22T09:15:58.673Z,36.93
2022-08-22T09:18:14.518Z,37.16
2022-08-22T09:20:47.530Z,37.09
2022-08-22T09:23:17.352Z,36.60
2022-08-22T09:25:38.597Z,36.18
2022-08-22T09:28:10.505Z,36.90
2022-08-22T09:30:28.715Z,36.77
2022-08-22T09:32:53.344Z,36.55
2022-08-22T09:35:19.308Z,36.82
2022-08-22T09:37:41.844Z,36.81
2022-08-22T09:42:45.006Z,37.68
2022-08-22T09:45:19.163Z,37.33
2022-08-22T09:47:33.818Z,37.20
2022-08-22T09:50:05.880Z,36.22
2022-08-22T09:52:33.996Z,36.11
2022-08-22T09:54:48.286Z,36.07
2022-08-22T09:57:01.887Z,36.29
2022-08-22T09:59:09.805Z,36.28
2022-08-22T10:01:48.633Z,36.29
2022-08-22T10:04:19.797Z,35.71
2022-08-22T10:06:31.455Z,36.85
2022-08-22T10:08:47.096Z,36.09
2022-08-22T10:10:54.785Z,37.40
2022-08-22T10:13:15.048Z,36.29
2022-08-22T10:15:42.113Z,35.84
2022-08-22T10:18:11.036Z,35.74
2022-08-22T10:20:23.210Z,35.46
2022-08-22T10:22:39.903Z,34.91
2022-08-22T10:24:50.273Z,35.06
2022-08-22T10:26:56.529Z,34.47
2022-08-22T10:29:19.668Z,35.35
2022-08-22T10:31:29.918Z,35.09
2022-08-22T10:33:36.437Z,35.11
2022-08-22T10:35:55.398Z,33.70
2022-08-22T10:38:02.810Z,33.84
2022-08-22T10:40:08.302Z,34.92
2022-08-22T10:42:28.701Z,33.39
2022-08-22T10:45:08.767Z,32.70
2022-08-22T10:47:20.807Z,32.35
2022-08-22T10:49:40.518Z,33.13
2022-08-22T10:51:49.765Z,33.55
2022-08-22T10:53:57.999Z,33.02
2022-08-22T10:56:10.208Z,33.10
2022-08-22T10:58:21.885Z,33.25
2022-08-22T11:03:32.376Z,33.33
2022-08-22T11:05:43.354Z,31.86
2022-08-22T11:08:09.902Z,32.03
2022-08-22T11:10:48.947Z,31.94
2022-08-22T11:13:14.120Z,31.56
2022-08-22T11:15:34.527Z,31.57
2022-08-22T11:18:02.088Z,32.41
2022-08-22T11:20:33.081Z,31.24
2022-08-22T11:22:47.756Z,30.53
2022-08-22T11:25:15.047Z,31.76
2022-08-22T11:28:02.048Z,31.03
2022-08-22T11:30:18.786Z,30.85
2022-08-22T11:32:29.972Z,31.69
2022-08-22T11:34:46.691Z,30.44
2022-08-22T11:37:04.081Z,31.13
2022-08-22T11:39:25.076Z,31.11
2022-08-22T11:41:35.703Z,30.60
2022-08-22T11:43:58.590Z,30.32
2022-08-22T11:46:14.848Z,31.09
2022-08-22T11:48:25.814Z,29.69
2022-08-22T11:50:36.283Z,31.01
2022-08-22T11:53:08.386Z,30.65
2022-08-22T11:55:32.730Z,29.86
2022-08-22T11:57:56.127Z,29.06
2022-08-22T12:00:23.161Z,29.67
2022-08-22T12:03:02.788Z,29.69
2022-08-22T12:05:13.743Z,29.46
2022-08-22T12:07:31.268Z,29.25
2022-08-22T12:09:50.790Z,28.37
2022-08-22T12:12:19.120Z,28.73
2022-08-22T12:14:33.562Z,28.42
2022-08-22T12:16:35.523Z,28.73
2022-08-22T12:18:54.852Z,27.94
2022-08-22T12:21:02.647Z,27.46
2022-08-22T12:23:10.853Z,26.75
2022-08-22T12:25:44.509Z,26.65
2022-08-22T12:28:14.123Z,27.64
2022-08-22T12:30:45.150Z,28.19
2022-08-22T12:32:49.485Z,27.49
2022-08-22T12:35:30.027Z,27.47
2022-08-22T12:37:52.252Z,27.91
2022-08-22T12:40:32.365Z,27.64
2022-08-22T12:43:10.608Z,27.30
2022-08-22T12:45:50.742Z,28.07
2022-08-22T12:48:14.723Z,27.74
2022-08-22T12:50:31.617Z,27.69
2022-08-22T12:52:45.905Z,28.42
2022-08-22T12:55:25.511Z,28.83
2022-08-22T12:57:50.420Z,29.48
2022-08-22T13:00:06.796Z,29.35
2022-08-22T13:02:18.372Z,27.95
2022-08-22T13:04:32.611Z,28.38
2022-08-22T13:06:35.659Z,28.35
2022-08-22T13:08:45.644Z,28.06
2022-08-22T13:10:56.597Z,28.21
2022-08-22T13:12:59.931Z,28.95
2022-08-22T13:15:27.102Z,28.20
2022-08-22T13:17:29.294Z,28.74
2022-08-22T13:19:35.527Z,28.68
2022-08-22T13:21:55.512Z,28.76
2022-08-22T13:24:04.835Z,28.68
2022-08-22T13:26:07.610Z,28.53
2022-08-22T13:28:12.103Z,27.93
2022-08-22T13:30:18.785Z,28.41
2022-08-22T13:32:39.268Z,28.21
2022-08-22T13:34:52.052Z,28.00
2022-08-22T13:36:58.742Z,27.96
2022-08-22T13:39:22.651Z,27.70
2022-08-22T13:41:38.255Z,28.22
2022-08-22T13:44:04.680Z,28.48
2022-08-22T13:46:11.085Z,28.63
2022-08-22T13:48:15.604Z,28.15
2022-08-22T13:50:21.998Z,28.39
2022-08-22T13:52:29.384Z,28.31
2022-08-22T13:54:43.963Z,27.95
2022-08-22T13:57:10.975Z,27.84
2022-08-22T13:59:50.046Z,28.00
2022-08-22T14:02:01.435Z,28.16
2022-08-22T14:04:32.174Z,28.26
2022-08-22T14:06:51.361Z,27.86
2022-08-22T14:08:58.518Z,28.43
2022-08-22T14:11:22.630Z,28.14
2022-08-22T14:13:29.877Z,28.05
2022-08-22T14:15:46.167Z,27.79
2022-08-22T14:17:50.993Z,28.34
2022-08-22T14:20:01.696Z,27.95
2022-08-22T14:22:09.261Z,27.69
2022-08-22T14:24:25.815Z,28.14
2022-08-22T14:26:32.996Z,28.20
2022-08-22T14:28:39.361Z,27.83
2022-08-22T14:30:54.393Z,26.98
2022-08-22T14:33:03.959Z,27.29
2022-08-22T14:35:26.438Z,27.46
2022-08-22T14:37:42.670Z,27.89
2022-08-22T14:39:49.924Z,27.96
2022-08-22T14:42:04.956Z,28.21
2022-08-22T14:44:32.548Z,28.43
2022-08-22T14:46:47.838Z,28.29
2022-08-22T14:49:18.490Z,28.24
2022-08-22T14:51:24.515Z,29.10
2022-08-22T14:53:30.743Z,28.95
2022-08-22T14:55:33.229Z,29.51
2022-08-22T14:57:37.884Z,28.69
2022-08-22T15:02:31.449Z,28.51
2022-08-22T15:04:45.956Z,27.39
2022-08-22T15:06:54.964Z,28.25
2022-08-22T15:08:57.874Z,27.53
2022-08-22T15:11:21.958Z,28.30
2022-08-22T15:13:29.639Z,28.59
2022-08-22T15:15:49.365Z,28.86
2022-08-22T15:17:55.997Z,28.60
2022-08-22T15:20:11.027Z,29.55
2022-08-22T15:22:20.423Z,28.14
2022-08-22T15:24:22.696Z,28.02
2022-08-22T15:26:34.377Z,28.55
2022-08-22T15:28:52.736Z,27.96
2022-08-22T15:30:57.831Z,29.01
2022-08-22T15:33:09.545Z,28.13
2022-08-22T15:35:15.311Z,28.46
2022-08-22T15:37:19.518Z,28.27
2022-08-22T15:39:57.381Z,28.04
2022-08-22T15:42:00.908Z,29.29
2022-08-22T15:44:33.654Z,28.62
2022-08-22T15:46:55.883Z,28.91
2022-08-22T15:49:06.521Z,28.18
2022-08-22T15:51:30.601Z,28.41
2022-08-22T15:53:59.720Z,28.41
2022-08-22T15:56:07.081Z,28.47
2022-08-22T15:58:24.380Z,28.34
2022-08-22T16:00:43.429Z,28.82
2022-08-22T16:03:03.108Z,28.58
2022-08-22T16:05:11.270Z,28.40
2022-08-22T16:07:25.436Z,28.84
2022-08-22T16:09:44.495Z,28.17
2022-08-22T16:11:55.110Z,27.54
2022-08-22T16:14:23.068Z,27.33
2022-08-22T16:16:43.068Z,27.70
2022-08-22T16:18:47.396Z,26.94
2022-08-22T16:20:53.221Z,27.15
2022-08-22T16:22:57.539Z,27.32
2022-08-22T16:25:01.642Z,28.16
2022-08-22T16:27:22.150Z,28.40
2022-08-22T16:29:41.161Z,27.80
2022-08-22T16:31:46.228Z,28.54
2022-08-22T16:33:48.616Z,28.28
2022-08-22T16:36:14.958Z,28.33
2022-08-22T16:38:27.299Z,28.40
2022-08-22T16:40:29.562Z,28.02
2022-08-22T16:42:39.206Z,28.12
2022-08-22T16:44:45.928Z,28.07
2022-08-22T16:46:50.536Z,27.76
2022-08-22T16:49:01.436Z,28.77
2022-08-22T16:51:18.547Z,27.86
2022-08-22T16:53:29.290Z,27.53
2022-08-22T16:55:30.930Z,27.91
2022-08-22T16:58:10.651Z,27.59
2022-08-22T17:00:27.554Z,27.59
2022-08-22T17:02:59.991Z,27.69
2022-08-22T17:05:30.596Z,27.47
2022-08-22T17:07:47.909Z,27.81
2022-08-22T17:10:21.101Z,26.62
2022-08-22T17:12:31.772Z,27.78
2022-08-22T17:14:56.728Z,27.86
2022-08-22T17:17:22.954Z,27.90
2022-08-22T17:19:40.512Z,27.58
2022-08-22T17:21:51.855Z,27.33
2022-08-22T17:24:07.600Z,28.06
2022-08-22T17:26:34.056Z,28.10
2022-08-22T17:28:36.092Z,27.81
2022-08-22T17:31:03.863Z,28.01
2022-08-22T17:33:42.365Z,28.20
2022-08-22T17:36:02.910Z,28.81
2022-08-22T17:38:32.276Z,28.55
2022-08-22T17:40:33.857Z,29.03
2022-08-22T17:42:40.894Z,28.88
2022-08-22T17:45:00.929Z,29.45
2022-08-22T17:47:14.921Z,29.61
2022-08-22T17:49:26.819Z,29.02
2022-08-22T17:51:36.257Z,29.46
2022-08-22T17:53:41.087Z,29.22
2022-08-22T17:56:15.118Z,29.72
2022-08-22T17:58:35.666Z,29.49
2022-08-22T18:00:55.642Z,28.99
2022-08-22T18:03:13.045Z,29.87
2022-08-22T18:05:23.369Z,29.73
2022-08-22T18:07:59.213Z,28.99
2022-08-22T18:10:17.530Z,29.23
2022-08-22T18:12:40.786Z,28.84
2022-08-22T18:15:04.008Z,28.78
2022-08-22T18:17:30.060Z,29.35
2022-08-22T18:19:50.138Z,29.08
2022-08-22T18:21:58.819Z,30.06
2022-08-22T18:24:24.348Z,29.72
2022-08-22T18:26:38.009Z,30.17
2022-08-22T18:28:48.949Z,29.07
2022-08-22T18:31:06.973Z,29.06
2022-08-22T18:33:19.892Z,29.32
2022-08-22T18:35:32.213Z,29.55
2022-08-22T18:37:33.761Z,29.81
2022-08-22T18:39:44.446Z,29.27
2022-08-22T18:41:53.864Z,28.52
2022-08-22T18:43:59.180Z,29.08
2022-08-22T18:46:04.349Z,28.94
2022-08-22T18:48:07.161Z,28.63
2022-08-22T18:50:34.171Z,28.61
2022-08-22T18:52:37.670Z,28.05
2022-08-22T18:55:03.674Z,28.08
2022-08-22T18:57:22.819Z,28.09
2022-08-22T18:59:47.398Z,29.51
2022-08-22T19:02:20.694Z,28.85
2022-08-22T19:04:31.684Z,29.49
2022-08-22T19:07:01.161Z,29.43
2022-08-22T19:09:20.692Z,30.12
2022-08-22T19:11:25.427Z,30.42
2022-08-22T19:13:42.189Z,30.35
2022-08-22T19:16:19.929Z,29.83
2022-08-22T19:18:56.981Z,29.53
2022-08-22T19:21:41.269Z,29.95
2022-08-22T19:23:46.859Z,30.22
2022-08-22T19:26:20.737Z,30.72
2022-08-22T19:28:25.222Z,32.03
2022-08-22T19:30:44.531Z,32.63
2022-08-22T19:32:46.077Z,31.99
2022-08-22T19:34:47.978Z,31.61
2022-08-22T19:37:32.231Z,31.27
2022-08-22T19:39:41.443Z,32.11
2022-08-22T19:41:54.141Z,31.32
2022-08-22T19:43:55.910Z,31.17
2022-08-22T19:46:00.142Z,30.90
2022-08-22T19:48:14.720Z,31.23
2022-08-22T19:50:16.513Z,30.92
2022-08-22T20:01:04.412Z,31.93
2022-08-22T20:03:14.080Z,31.56
2022-08-22T20:05:45.391Z,30.92
2022-08-22T20:08:37.932Z,31.12
2022-08-22T20:10:51.309Z,32.75
2022-08-22T20:13:18.523Z,32.44
2022-08-22T20:15:24.849Z,31.94
2022-08-22T20:17:26.447Z,31.86
2022-08-22T20:20:16.310Z,30.67
2022-08-22T20:22:07.588Z,30.29
2022-08-22T20:24:16.630Z,30.48
2022-08-22T20:26:18.351Z,30.64
2022-08-22T20:28:29.641Z,30.58
2022-08-22T20:30:38.712Z,30.30
2022-08-22T20:32:47.924Z,30.46
2022-08-22T20:34:54.856Z,30.73
2022-08-22T20:37:23.331Z,30.79
2022-08-22T20:39:26.336Z,31.03
2022-08-22T20:41:43.428Z,31.38
2022-08-22T20:44:03.378Z,31.76
2022-08-22T20:46:29.209Z,32.79
2022-08-22T20:48:41.136Z,31.89
2022-08-22T20:50:43.147Z,32.29
2022-08-22T20:52:54.227Z,32.51
2022-08-22T20:55:01.208Z,32.40
2022-08-22T20:57:10.200Z,32.86
2022-08-22T20:59:24.387Z,32.73
2022-08-22T21:01:28.431Z,32.42
2022-08-22T21:03:50.707Z,32.18
2022-08-22T21:05:52.350Z,32.68
2022-08-22T21:08:12.346Z,32.97
2022-08-22T21:10:40.003Z,33.04
2022-08-22T21:12:41.755Z,33.55
2022-08-22T21:14:48.282Z,32.83
2022-08-22T21:16:50.284Z,32.71
2022-08-22T21:18:53.808Z,33.33
2022-08-22T21:21:17.253Z,32.90
2022-08-22T21:23:20.253Z,32.79
2022-08-22T21:25:22.144Z,32.65
2022-08-22T21:27:30.441Z,33.32
2022-08-22T21:29:34.971Z,33.57
2022-08-22T21:31:47.557Z,32.94
2022-08-22T21:33:52.181Z,33.87
2022-08-22T21:35:59.603Z,33.36
2022-08-22T21:38:02.147Z,33.00
2022-08-22T21:40:04.959Z,33.25
2022-08-22T21:42:06.541Z,33.11
2022-08-22T21:44:27.111Z,32.87
2022-08-22T21:46:29.128Z,33.25
2022-08-22T21:48:58.025Z,33.00
2022-08-22T21:51:21.348Z,32.96
2022-08-22T21:53:28.064Z,33.33
2022-08-22T21:55:35.518Z,33.12
2022-08-22T21:57:38.165Z,32.99
2022-08-22T21:59:59.129Z,33.52
2022-08-22T22:02:23.540Z,33.91
2022-08-22T22:04:29.055Z,33.60
2022-08-22T22:06:30.619Z,33.83
2022-08-22T22:08:32.947Z,33.16
2022-08-22T22:10:34.613Z,34.03
2022-08-22T22:12:40.760Z,34.31
2022-08-22T22:14:46.732Z,35.04
2022-08-22T22:16:48.360Z,34.89
2022-08-22T22:18:50.025Z,34.87
2022-08-22T22:20:53.421Z,33.78
2022-08-22T22:22:55.537Z,33.79
2022-08-22T22:24:57.169Z,33.61
2022-08-22T22:26:59.408Z,34.45
2022-08-22T22:29:02.748Z,35.46
2022-08-22T22:31:05.368Z,35.33
2022-08-22T22:33:06.981Z,35.65
2022-08-22T22:35:09.356Z,35.38
2022-08-22T22:37:15.668Z,35.84
2022-08-22T22:39:17.397Z,35.71
2022-08-22T22:41:21.267Z,36.25
2022-08-22T22:43:22.911Z,36.13
2022-08-22T22:45:24.702Z,35.31
2022-08-22T22:47:28.656Z,35.68
2022-08-22T22:49:32.181Z,35.35
2022-08-22T22:51:33.871Z,35.16
2022-08-22T22:53:40.411Z,35.16
2022-08-22T22:55:44.434Z,35.26
2022-08-22T22:57:46.055Z,34.76
2022-08-22T22:59:48.260Z,35.09
2022-08-22T23:02:21.757Z,35.82
2022-08-22T23:04:23.418Z,35.69
2022-08-22T23:06:27.533Z,35.64
2022-08-22T23:08:29.165Z,35.34
2022-08-22T23:10:32.320Z,36.20
2022-08-22T23:12:36.060Z,37.04
2022-08-22T23:14:37.672Z,37.19
2022-08-22T23:16:40.473Z,37.14
2022-08-22T23:18:43.182Z,36.06
2022-08-22T23:20:44.762Z,36.01
2022-08-22T23:22:46.874Z,36.07
2022-08-22T23:24:49.416Z,35.86
2022-08-22T23:26:51.185Z,36.02
2022-08-22T23:28:52.818Z,36.54
2022-08-22T23:30:57.643Z,36.74
2022-08-22T23:32:59.293Z,36.88
2022-08-22T23:35:00.985Z,37.33
2022-08-22T23:37:06.569Z,37.82
2022-08-22T23:39:09.876Z,38.53
2022-08-22T23:41:13.401Z,39.27
2022-08-22T23:43:14.997Z,39.13
2022-08-22T23:45:16.681Z,39.55
2022-08-22T23:47:18.293Z,39.13
2022-08-22T23:49:20.352Z,39.53
2022-08-22T23:51:24.854Z,39.81
2022-08-22T23:53:26.504Z,40.20
2022-08-22T23:55:28.082Z,39.93
2022-08-22T23:57:29.784Z,39.25
2022-08-22T23:59:34.201Z,39.21
